Time;durP1;ratioP1;P1;durP2;ratioP2;P2;SDS_P1;SDS_P2;PMS_P1;PMS_P2;Temp;Humidity;BMP_temperature;BMP_pressure;BME280_temperature;BME280_humidity;BME280_pressure;Samples;Min_cycle;Max_cycle;Signal;HPM_P1;HPM_P2
2021/12/19 00:01:19;;;;;;;10.27;4.88;;;5.70;99.90;;;5.84;99.07;102503.38;5033849;28;20766;-64
2021/12/19 00:09:17;;;;;;;12.83;4.30;;;5.80;99.90;;;5.90;98.56;102511.88;5019056;28;20308;-64
2021/12/19 00:11:44;;;;;;;14.40;4.97;;;5.80;99.90;;;5.88;99.06;102492.91;5030636;28;20679;-65
2021/12/19 00:14:11;;;;;;;11.13;4.70;;;5.80;99.90;;;5.81;99.25;102496.53;5033559;28;20622;-64
2021/12/19 00:16:38;;;;;;;8.98;4.47;;;5.70;99.90;;;5.73;98.64;102498.41;5033274;28;20614;-65
2021/12/19 00:19:05;;;;;;;9.37;4.80;;;5.60;99.90;;;5.66;98.53;102489.09;5015087;28;20201;-65
2021/12/19 00:21:32;;;;;;;7.33;4.57;;;5.50;99.90;;;5.63;99.40;102485.72;5024999;28;21282;-64
2021/12/19 00:23:59;;;;;;;7.87;3.93;;;5.50;99.90;;;5.62;99.45;102478.84;5021465;28;20671;-64
2021/12/19 00:26:26;;;;;;;10.13;4.53;;;5.50;99.90;;;5.63;99.70;102481.38;5026628;28;20644;-64
2021/12/19 00:28:54;;;;;;;6.90;4.53;;;5.50;99.90;;;5.64;99.87;102482.25;5013335;28;20224;-64
2021/12/19 00:31:20;;;;;;;9.68;5.03;;;5.50;99.90;;;5.63;99.96;102483.97;5032725;28;20222;-63
2021/12/19 00:33:47;;;;;;;11.75;4.50;;;5.50;99.90;;;5.61;100.00;102482.31;5031735;28;20296;-66
2021/12/19 00:36:14;;;;;;;11.70;4.33;;;5.40;99.90;;;5.60;99.87;102481.44;5032838;28;20210;-65
2021/12/19 00:38:41;;;;;;;12.43;4.60;;;5.40;99.90;;;5.54;100.00;102481.56;5031516;28;21217;-64
2021/12/19 00:41:09;;;;;;;10.93;4.00;;;5.40;99.90;;;5.54;100.00;102486.75;5033264;28;20727;-64
2021/12/19 00:43:45;;;;;;;8.18;3.83;;;5.40;99.90;;;5.53;100.00;102476.44;5012197;28;20641;-64
2021/12/19 00:46:16;;;;;;;7.90;3.80;;;5.30;99.90;;;5.47;100.00;102477.44;5032063;28;20224;-64
2021/12/19 00:48:50;;;;;;;7.93;4.47;;;5.30;99.90;;;5.39;100.00;102471.56;5031409;28;20633;-65
2021/12/19 00:51:24;;;;;;;5.43;3.15;;;5.20;99.90;;;5.38;100.00;102467.28;5029250;28;20690;-64
2021/12/19 00:53:54;;;;;;;5.03;3.25;;;5.20;99.90;;;5.39;100.00;102461.19;5031907;28;20213;-65
2021/12/19 00:56:21;;;;;;;9.60;4.37;;;5.20;99.90;;;5.40;100.00;102463.78;5031018;28;20198;-65
2021/12/19 00:58:49;;;;;;;10.00;4.57;;;5.20;99.90;;;5.42;100.00;102461.16;5031982;28;20636;-65
2021/12/19 01:01:17;;;;;;;10.98;5.10;;;5.20;99.90;;;5.44;100.00;102449.88;5030911;28;20897;-64
2021/12/19 01:03:47;;;;;;;14.27;5.97;;;5.30;99.90;;;5.48;100.00;102453.25;5030832;28;20197;-65
2021/12/19 01:06:17;;;;;;;11.90;5.85;;;5.30;99.90;;;5.50;100.00;102454.91;5032128;28;20213;-65
2021/12/19 01:08:45;;;;;;;11.25;5.88;;;5.40;99.90;;;5.56;100.00;102453.09;5031025;28;20748;-65
2021/12/19 01:11:12;;;;;;;10.07;4.80;;;5.40;99.90;;;5.62;100.00;102448.63;5029439;28;20230;-65
2021/12/19 01:13:39;;;;;;;12.02;5.72;;;5.50;99.90;;;5.66;100.00;102447.66;5031007;28;20715;-65
2021/12/19 01:16:06;;;;;;;10.32;4.68;;;5.50;99.90;;;5.67;100.00;102441.56;5008898;28;20203;-64
2021/12/19 01:18:33;;;;;;;8.82;4.03;;;5.60;99.90;;;5.62;100.00;102440.00;5029977;28;20202;-64
2021/12/19 01:21:00;;;;;;;11.30;4.07;;;5.50;99.90;;;5.45;100.00;102438.63;5030566;28;20238;-64
2021/12/19 01:23:27;;;;;;;7.93;3.72;;;5.30;99.90;;;5.43;100.00;102448.16;5014605;28;20623;-64
2021/12/19 01:25:54;;;;;;;11.60;5.35;;;5.30;99.90;;;5.42;100.00;102446.47;5012402;28;20210;-65
2021/12/19 01:28:21;;;;;;;10.40;4.60;;;5.20;99.90;;;5.43;100.00;102455.09;5031849;28;20232;-65
2021/12/19 01:30:48;;;;;;;14.32;6.13;;;5.20;99.90;;;5.44;100.00;102449.88;5030540;28;20229;-64
2021/12/19 01:33:15;;;;;;;10.40;4.53;;;5.30;99.90;;;5.45;100.00;102450.72;5031815;28;20202;-64
2021/12/19 01:35:42;;;;;;;8.20;4.30;;;5.30;99.90;;;5.49;100.00;102442.84;5030769;28;20285;-64
2021/12/19 01:38:09;;;;;;;9.77;5.10;;;5.40;99.90;;;5.54;100.00;102450.50;5031389;28;20600;-65
2021/12/19 01:40:37;;;;;;;13.32;3.85;;;5.40;99.90;;;5.58;100.00;102446.97;5029831;28;20285;-65
2021/12/19 01:43:05;;;;;;;9.85;4.93;;;5.50;99.90;;;5.49;100.00;102447.19;5030949;28;20836;-63
2021/12/19 01:45:39;;;;;;;7.93;4.10;;;5.40;99.90;;;5.49;100.00;102439.41;5012001;28;20214;-64
2021/12/19 01:48:12;;;;;;;6.25;3.75;;;5.40;99.90;;;5.46;100.00;102444.66;5030617;28;20194;-65
2021/12/19 01:50:41;;;;;;;12.18;6.25;;;5.30;99.90;;;5.49;100.00;102444.59;5012408;28;20214;-64
2021/12/19 01:53:11;;;;;;;11.20;5.18;;;5.30;99.90;;;5.50;100.00;102441.97;5031685;28;20213;-65
2021/12/19 01:55:41;;;;;;;8.87;4.43;;;5.30;99.90;;;5.51;100.00;102432.47;5029929;28;20675;-64
2021/12/19 01:58:08;;;;;;;7.70;3.22;;;5.40;99.90;;;5.54;100.00;102426.38;5009222;28;20633;-64
2021/12/19 02:00:45;;;;;;;13.75;5.20;;;5.40;99.90;;;5.54;100.00;102431.56;5021496;28;20669;-65
2021/12/19 02:03:13;;;;;;;9.18;3.50;;;5.40;99.90;;;5.56;100.00;102419.41;5012418;28;20202;-63
2021/12/19 02:05:41;;;;;;;10.68;4.38;;;5.40;99.90;;;5.56;100.00;102409.06;5008579;28;20280;-65
2021/12/19 02:08:10;;;;;;;9.20;4.85;;;5.40;99.90;;;5.59;100.00;102407.25;5011171;28;20689;-65
2021/12/19 02:10:39;;;;;;;11.18;4.75;;;5.50;99.90;;;5.60;100.00;102401.16;5001782;28;20253;-65
2021/12/19 02:13:09;;;;;;;8.95;4.68;;;5.50;99.90;;;5.63;100.00;102402.84;5030677;28;20221;-62
2021/12/19 02:15:39;;;;;;;10.07;4.57;;;5.50;99.90;;;5.54;100.00;102398.72;5028724;28;20236;-65
2021/12/19 02:18:18;;;;;;;8.70;3.63;;;5.40;99.90;;;5.49;100.00;102392.81;5027123;28;21702;-65
2021/12/19 02:20:52;;;;;;;13.88;5.13;;;5.40;99.90;;;5.41;100.00;102386.94;5030660;28;20260;-65
2021/12/19 02:23:24;;;;;;;14.82;5.70;;;5.20;99.90;;;5.42;100.00;102405.06;5027144;28;20215;-64
2021/12/19 02:25:52;;;;;;;7.40;4.10;;;5.20;99.90;;;5.43;100.00;102388.59;5031145;28;20293;-65
2021/12/19 02:28:20;;;;;;;5.20;3.30;;;5.30;99.90;;;5.41;100.00;102381.75;5013866;28;20293;-64
2021/12/19 02:30:49;;;;;;;9.32;4.07;;;5.30;99.90;;;5.45;100.00;102388.59;5011387;28;20602;-65
2021/12/19 02:33:21;;;;;;;10.65;4.22;;;5.30;99.90;;;5.42;100.00;102388.66;5008753;28;20195;-65
2021/12/19 02:36:38;;;;;;;7.65;3.95;;;5.30;99.90;;;5.39;100.00;102388.72;5021255;28;20277;-65
2021/12/19 02:49:33;;;;;;;8.02;4.18;;;5.40;99.90;;;5.47;100.00;102389.41;5029700;28;20202;-65
2021/12/19 02:52:03;;;;;;;9.15;4.13;;;5.40;99.90;;;5.40;100.00;102382.66;5001390;28;20230;-64
2021/12/19 02:54:30;;;;;;;7.15;3.90;;;5.30;99.90;;;5.40;100.00;102380.94;5011948;28;20206;-65
2021/12/19 02:56:58;;;;;;;4.78;2.92;;;5.20;99.90;;;5.39;100.00;102389.56;5028978;28;20297;-64
2021/12/19 02:59:25;;;;;;;6.22;3.42;;;5.30;99.90;;;5.40;100.00;102393.03;5033370;28;20564;-64
2021/12/19 03:01:53;;;;;;;6.03;3.30;;;5.30;99.90;;;5.42;100.00;102391.25;5029368;28;20224;-65
2021/12/19 03:04:22;;;;;;;7.75;4.20;;;5.20;99.90;;;5.44;100.00;102381.72;5023445;28;20212;-65
2021/12/19 03:06:49;;;;;;;4.82;3.35;;;5.30;99.90;;;5.43;100.00;102378.25;5032428;28;20249;-64
2021/12/19 03:09:35;;;;;;;8.07;3.88;;;5.30;99.90;;;5.38;100.00;102376.69;5034162;28;20639;-63
2021/12/19 03:20:12;;;;;;;5.75;3.28;;;5.30;99.90;;;5.43;100.00;102359.31;5033761;28;20217;-64
2021/12/19 03:22:39;;;;;;;10.13;4.65;;;5.30;99.90;;;5.43;100.00;102367.91;5032408;28;20221;-65
2021/12/19 03:25:07;;;;;;;8.68;3.70;;;5.30;99.90;;;5.45;100.00;102362.72;5033530;28;20205;-64
2021/12/19 03:27:34;;;;;;;5.97;3.15;;;5.30;99.90;;;5.47;100.00;102355.75;5012223;28;20199;-64
2021/12/19 03:30:03;;;;;;;9.25;4.22;;;5.30;99.90;;;5.49;100.00;102348.81;5017302;28;20217;-64
2021/12/19 03:32:29;;;;;;;7.03;3.70;;;5.40;99.90;;;5.51;100.00;102349.63;5015711;28;20222;-64
2021/12/19 03:34:57;;;;;;;5.00;2.92;;;5.40;99.90;;;5.49;100.00;102343.63;5032509;28;20292;-64
2021/12/19 03:37:24;;;;;;;9.85;4.07;;;5.40;99.90;;;5.50;100.00;102340.13;5034509;28;20198;-64
2021/12/19 03:40:08;;;;;;;4.65;3.10;;;5.40;99.90;;;5.51;100.00;102345.25;5032296;28;20206;-65
2021/12/19 03:42:44;;;;;;;4.85;3.00;;;5.40;99.90;;;5.53;99.92;102345.25;5013186;28;20233;-64
2021/12/19 03:45:16;;;;;;;7.55;3.65;;;5.40;99.90;;;5.59;99.77;102341.66;5029243;28;20212;-64
2021/12/19 03:47:44;;;;;;;6.70;3.35;;;5.50;99.90;;;5.62;100.00;102344.19;5030957;28;20197;-64
2021/12/19 03:50:17;;;;;;;8.40;3.40;;;5.50;99.90;;;5.63;99.57;102336.34;5015133;28;20229;-64
2021/12/19 03:52:44;;;;;;;6.05;3.50;;;5.50;99.90;;;5.68;99.82;102338.84;5014097;28;20740;-65
2021/12/19 03:55:11;;;;;;;7.55;3.35;;;5.60;99.90;;;5.67;99.71;102339.72;4995958;28;20206;-65
2021/12/19 03:57:38;;;;;;;4.55;3.40;;;5.50;99.90;;;5.67;100.00;102342.31;5030243;28;20201;-64
2021/12/19 04:00:11;;;;;;;5.57;3.25;;;5.50;99.90;;;5.67;99.75;102335.41;5033531;28;20289;-64
2021/12/19 04:02:38;;;;;;;8.45;3.92;;;5.50;99.90;;;5.68;99.76;102334.53;5033027;28;20313;-64
2021/12/19 04:05:05;;;;;;;5.07;3.05;;;5.60;99.90;;;5.70;99.82;102326.69;5033072;28;20205;-64
2021/12/19 04:07:32;;;;;;;6.53;3.92;;;5.60;99.90;;;5.72;99.68;102325.78;5031807;28;20202;-64
2021/12/19 04:09:59;;;;;;;6.90;3.63;;;5.60;99.90;;;5.73;99.65;102330.06;5032765;28;20202;-65
2021/12/19 04:12:29;;;;;;;11.33;4.20;;;5.60;99.90;;;5.74;99.71;102325.72;5011678;28;20699;-65
2021/12/19 04:14:56;;;;;;;8.10;3.87;;;5.60;99.90;;;5.70;99.21;102319.78;5021222;28;20843;-64
2021/12/19 04:17:23;;;;;;;5.65;3.38;;;5.50;99.90;;;5.68;99.58;102324.16;5031325;28;20731;-64
2021/12/19 04:19:50;;;;;;;12.15;4.20;;;5.50;99.90;;;5.70;99.71;102326.69;5032140;28;20771;-64
2021/12/19 04:22:17;;;;;;;9.27;4.00;;;5.50;99.90;;;5.70;100.00;102326.69;5032550;28;20242;-65
2021/12/19 04:24:44;;;;;;;6.13;3.30;;;5.60;99.90;;;5.74;99.71;102323.13;5014029;28;20206;-64
2021/12/19 04:27:12;;;;;;;9.10;3.77;;;5.60;99.90;;;5.73;100.00;102319.69;5030824;28;20635;-65
2021/12/19 04:29:39;;;;;;;7.37;4.00;;;5.60;99.90;;;5.78;99.76;102319.59;5031071;28;20632;-64
2021/12/19 04:32:11;;;;;;;7.60;3.87;;;5.60;99.90;;;5.81;100.00;102315.19;5031242;28;20862;-64
2021/12/19 04:34:38;;;;;;;7.50;3.73;;;5.70;99.90;;;5.83;99.53;102318.59;5032021;28;20619;-64
2021/12/19 04:40:13;;;;;;;9.20;3.87;;;5.70;99.90;;;5.82;99.30;102309.09;5020765;28;20617;-64
2021/12/19 05:04:12;;;;;;;8.93;3.73;;;5.80;99.90;;;5.95;99.13;102278.56;5006841;28;21000;-64
2021/12/19 05:14:46;;;;;;;5.75;2.95;;;5.80;99.90;;;6.01;98.32;102271.50;5031639;28;20220;-65
2021/12/19 05:17:19;;;;;;;6.50;3.57;;;5.90;99.90;;;6.00;98.38;102271.53;5030516;28;20200;-65
2021/12/19 05:20:07;;;;;;;5.43;3.40;;;5.80;99.90;;;6.00;98.46;102268.94;5014698;28;21184;-65
2021/12/19 05:22:38;;;;;;;9.30;3.87;;;5.80;99.90;;;6.02;97.90;102274.94;5029164;28;20236;-65
2021/12/19 05:25:14;;;;;;;6.87;3.50;;;5.80;99.90;;;6.00;98.20;102269.81;5030158;28;21267;-65
2021/12/19 05:27:55;;;;;;;6.50;3.65;;;5.90;99.90;;;5.99;98.68;102269.81;5031379;28;20608;-65
2021/12/19 05:30:23;;;;;;;6.87;3.47;;;5.80;99.90;;;5.99;98.21;102264.66;5028910;28;20209;-64
2021/12/19 05:32:53;;;;;;;6.60;3.35;;;5.80;99.90;;;5.99;98.28;102257.72;5030637;28;20644;-64
2021/12/19 05:35:48;;;;;;;6.80;3.60;;;5.80;99.90;;;6.00;98.74;102254.25;5031275;28;20198;-63
2021/12/19 05:46:29;;;;;;;6.77;3.50;;;5.80;99.90;;;6.01;98.77;102253.34;4996234;28;20712;-65
2021/12/19 05:48:56;;;;;;;5.90;4.07;;;5.90;99.90;;;6.05;97.51;102254.09;5030839;28;20622;-65
2021/12/19 05:51:23;;;;;;;3.47;3.17;;;5.90;99.90;;;6.06;97.26;102248.91;5030992;28;21247;-65
2021/12/19 05:53:50;;;;;;;3.63;3.22;;;5.90;99.90;;;6.14;96.71;102253.84;5029686;28;20628;-65
2021/12/19 05:56:17;;;;;;;2.97;2.77;;;6.00;99.90;;;6.15;96.31;102248.63;5013812;28;20218;-65
2021/12/19 05:58:44;;;;;;;3.70;2.57;;;6.00;99.90;;;6.18;95.78;102245.09;5030880;28;21211;-64
2021/12/19 06:01:11;;;;;;;3.53;3.23;;;6.00;99.90;;;6.20;94.91;102245.91;5022487;28;20671;-65
2021/12/19 06:03:38;;;;;;;3.77;3.17;;;6.10;99.90;;;6.23;93.91;102231.13;5007456;28;21262;-65
2021/12/19 06:06:06;;;;;;;2.93;2.50;;;6.10;99.90;;;6.26;94.06;102235.38;5013160;28;20700;-64
2021/12/19 06:08:33;;;;;;;5.40;3.60;;;6.10;99.90;;;6.30;93.57;102230.97;5029864;28;20652;-64
2021/12/19 06:11:00;;;;;;;5.10;4.30;;;6.20;99.90;;;6.34;92.72;102222.19;5031347;28;20672;-65
2021/12/19 06:13:27;;;;;;;4.60;3.40;;;6.20;99.90;;;6.31;93.12;102223.13;5030190;28;20984;-64
2021/12/19 06:15:56;;;;;;;5.10;3.50;;;6.10;99.90;;;6.32;93.53;102224.84;5031580;28;20616;-65
2021/12/19 06:18:24;;;;;;;3.90;3.43;;;6.20;99.90;;;6.34;92.81;102222.19;5028382;28;21282;-64
2021/12/19 06:20:51;;;;;;;5.87;3.73;;;6.20;99.90;;;6.34;93.34;102235.16;5028266;28;20766;-64
2021/12/19 06:23:18;;;;;;;4.37;3.50;;;6.20;99.90;;;6.35;93.25;102231.66;5031644;28;20623;-65
2021/12/19 06:25:47;;;;;;;4.47;3.97;;;6.20;99.90;;;6.21;93.33;102225.16;5013596;28;21229;-66
2021/12/19 06:28:18;;;;;;;16.03;6.80;;;6.00;99.90;;;6.26;93.37;102225.84;5019139;28;20632;-65
2021/12/19 06:30:46;;;;;;;7.57;5.20;;;6.10;99.90;;;6.26;93.32;102225.03;4993787;28;20675;-65
2021/12/19 06:33:13;;;;;;;15.13;8.87;;;6.10;99.90;;;6.30;94.07;102216.25;5017333;28;20998;-64
2021/12/19 06:35:41;;;;;;;5.27;3.63;;;6.10;99.90;;;6.35;93.21;102216.09;5029444;28;21187;-64
2021/12/19 06:38:08;;;;;;;6.67;4.20;;;6.20;99.90;;;6.29;92.93;102222.31;5029042;28;20612;-64
2021/12/19 06:40:35;;;;;;;3.50;3.20;;;6.10;99.90;;;6.26;92.82;102209.47;5012662;28;20616;-65
2021/12/19 06:43:03;;;;;;;4.17;3.53;;;6.10;99.90;;;6.32;92.13;102214.47;5012804;28;20724;-65
2021/12/19 06:45:30;;;;;;;5.03;3.63;;;6.20;99.90;;;6.30;92.62;102215.41;5021950;28;20640;-64
2021/12/19 06:47:57;;;;;;;4.77;3.27;;;6.10;99.90;;;6.31;92.50;102214.50;5029523;28;20620;-65
2021/12/19 06:50:24;;;;;;;4.20;3.70;;;6.10;99.90;;;6.32;92.90;102211.03;5028848;28;20675;-64
2021/12/19 06:52:51;;;;;;;6.57;3.80;;;6.10;99.90;;;6.34;92.32;102204.91;5028863;28;20660;-65
2021/12/19 06:55:19;;;;;;;8.60;5.70;;;6.20;99.90;;;6.34;92.09;102214.41;5011079;28;20719;-65
2021/12/19 06:57:46;;;;;;;4.07;3.33;;;6.20;99.90;;;6.35;92.19;102204.00;5028894;28;21170;-63
2021/12/19 07:00:24;;;;;;;3.80;3.20;;;6.20;99.90;;;6.39;92.15;102207.34;5028835;28;20728;-65
2021/12/19 07:02:53;;;;;;;5.30;3.67;;;6.30;99.90;;;6.39;92.50;102213.38;5016574;28;20715;-65
2021/12/19 07:05:21;;;;;;;7.07;4.40;;;6.20;99.90;;;6.40;92.58;102203.84;5028646;28;20632;-63
2021/12/19 07:07:48;;;;;;;5.30;4.07;;;6.20;99.90;;;6.43;92.85;102206.38;5030390;28;20631;-64
2021/12/19 07:10:15;;;;;;;5.47;4.20;;;6.30;99.90;;;6.45;92.40;102210.63;5028632;28;20632;-65
2021/12/19 07:12:42;;;;;;;5.10;4.00;;;6.30;99.90;;;6.48;92.34;102209.66;5030322;28;20668;-65
2021/12/19 07:15:10;;;;;;;4.80;4.30;;;6.30;99.90;;;6.50;92.31;102213.06;5008576;28;20633;-64
2021/12/19 07:17:37;;;;;;;4.77;3.80;;;6.30;99.90;;;6.49;91.92;102220.00;5026494;28;20636;-64
2021/12/19 07:20:05;;;;;;;5.90;3.93;;;6.30;99.90;;;6.52;92.67;102213.84;5023626;28;20672;-65
2021/12/19 07:22:32;;;;;;;7.70;4.83;;;6.40;99.90;;;6.52;91.25;102222.50;5030195;28;20648;-65
2021/12/19 07:24:59;;;;;;;6.53;4.33;;;6.40;99.90;;;6.51;92.67;102206.97;5028400;28;21024;-64
2021/12/19 07:27:26;;;;;;;3.90;3.27;;;6.30;99.90;;;6.54;92.27;102214.69;5029106;28;20735;-64
2021/12/19 07:29:56;;;;;;;3.90;3.50;;;6.40;99.90;;;6.52;92.14;102211.25;5029461;28;20617;-64
2021/12/19 07:32:24;;;;;;;7.47;4.80;;;6.30;99.90;;;6.50;92.38;102202.69;5028224;28;20676;-64
2021/12/19 07:35:08;;;;;;;4.63;4.13;;;6.30;99.90;;;6.47;92.43;102202.78;5017874;28;20636;-64
2021/12/19 07:37:38;;;;;;;5.07;3.60;;;6.30;99.90;;;6.47;92.10;102202.78;5029867;28;20616;-65
2021/12/19 07:40:14;;;;;;;4.10;3.30;;;6.30;99.90;;;6.41;91.53;102195.19;5028468;28;20635;-65
2021/12/19 07:42:42;;;;;;;3.47;2.90;;;6.30;99.90;;;6.40;91.95;102198.66;5030360;28;20636;-65
2021/12/19 07:45:14;;;;;;;8.80;3.37;;;6.20;99.90;;;6.37;91.45;102202.19;5029527;28;20672;-65
2021/12/19 07:47:42;;;;;;;5.50;4.20;;;6.20;99.90;;;6.39;92.20;102199.59;5033300;28;21164;-65
2021/12/19 07:50:12;;;;;;;5.53;3.87;;;6.20;99.90;;;6.40;92.00;102196.06;5032692;28;21009;-65
2021/12/19 07:52:39;;;;;;;4.47;2.97;;;6.30;99.90;;;6.44;91.64;102197.69;5033086;28;20674;-65
2021/12/19 07:55:08;;;;;;;5.07;3.83;;;6.30;99.90;;;6.38;92.15;102198.72;5031838;28;20635;-66
2021/12/19 07:57:36;;;;;;;3.60;3.30;;;6.30;99.90;;;6.38;91.54;102192.69;5015448;28;20707;-67
2021/12/19 08:00:09;;;;;;;8.20;4.57;;;6.20;99.90;;;6.39;90.94;102204.78;5026818;28;20643;-67
2021/12/19 08:02:36;;;;;;;6.33;3.43;;;6.20;99.90;;;6.33;91.45;102190.22;5032986;28;20671;-66
2021/12/19 08:05:03;;;;;;;4.70;2.87;;;6.20;99.90;;;6.32;92.04;102191.13;5031158;28;21212;-65
2021/12/19 08:07:31;;;;;;;3.23;2.93;;;6.20;99.90;;;6.28;92.29;102182.56;5015941;28;20612;-64
2021/12/19 08:12:35;;;;;;;5.93;4.10;;;6.20;99.90;;;6.31;92.04;102178.19;5017124;28;21035;-64
2021/12/19 08:15:06;;;;;;;5.47;3.80;;;6.20;99.90;;;6.34;92.41;102180.72;5031131;28;20639;-63
2021/12/19 08:17:34;;;;;;;3.90;3.07;;;6.20;99.90;;;6.32;92.70;102177.31;5007402;28;21204;-64
2021/12/19 08:20:03;;;;;;;4.27;3.37;;;6.10;99.90;;;6.28;92.48;102173.13;5031235;28;20635;-64
2021/12/19 08:22:31;;;;;;;6.20;3.80;;;6.20;99.90;;;6.26;92.37;102176.59;5029835;28;21039;-67
2021/12/19 08:24:59;;;;;;;4.77;3.53;;;6.10;99.90;;;6.26;91.91;102173.19;5032131;28;20634;-66
2021/12/19 08:27:26;;;;;;;4.67;3.70;;;6.10;99.90;;;6.34;92.98;102163.41;5031927;28;20632;-65
2021/12/19 08:29:55;;;;;;;7.80;4.93;;;6.20;99.90;;;6.42;92.28;102164.03;5017086;28;20640;-67
2021/12/19 08:32:23;;;;;;;6.53;3.80;;;6.30;99.90;;;6.48;91.73;102163.84;5030490;28;20672;-66
2021/12/19 08:34:50;;;;;;;5.37;4.10;;;6.40;99.90;;;6.47;91.34;102167.34;5030334;28;20731;-65
2021/12/19 08:37:18;;;;;;;7.00;3.90;;;6.30;99.90;;;6.45;90.68;102155.31;5014239;28;20620;-67
2021/12/19 08:39:47;;;;;;;4.57;3.90;;;6.30;99.90;;;6.43;90.23;102149.31;5015690;28;20646;-64
2021/12/19 08:42:14;;;;;;;6.60;4.20;;;6.30;99.90;;;6.43;90.91;102149.31;5030744;28;20636;-64
2021/12/19 08:44:42;;;;;;;5.30;3.70;;;6.30;99.90;;;6.47;91.13;102151.78;5030057;28;21048;-66
2021/12/19 08:47:10;;;;;;;3.90;3.50;;;6.30;99.90;;;6.51;90.80;102148.19;5031116;28;20617;-66
2021/12/19 08:49:37;;;;;;;4.30;3.07;;;6.40;99.90;;;6.54;90.17;102152.44;5030866;28;20651;-64
2021/12/19 08:52:04;;;;;;;5.47;3.83;;;6.40;99.90;;;6.60;89.73;102160.84;5031140;28;20672;-66
2021/12/19 08:54:31;;;;;;;6.87;4.37;;;6.50;99.90;;;6.63;89.43;102157.31;5026732;28;20944;-65
2021/12/19 08:56:58;;;;;;;5.67;3.37;;;6.50;99.90;;;6.67;89.34;102164.09;5030301;28;20624;-66
2021/12/19 08:59:28;;;;;;;7.43;4.53;;;6.50;99.90;;;6.67;89.98;102164.09;5032456;28;20609;-65
2021/12/19 09:02:00;;;;;;;7.60;4.50;;;6.50;99.90;;;6.64;88.53;102161.63;5010214;28;20649;-66
2021/12/19 09:04:30;;;;;;;6.00;3.30;;;6.50;99.90;;;6.66;88.21;102149.44;5027529;28;20728;-66
2021/12/19 09:06:59;;;;;;;5.10;3.37;;;6.50;99.90;;;6.65;88.08;102153.78;5012923;28;20641;-65
2021/12/19 09:09:28;;;;;;;4.93;3.30;;;6.50;99.90;;;6.68;88.36;102155.44;5013913;28;20981;-67
2021/12/19 09:11:55;;;;;;;6.40;4.13;;;6.50;99.90;;;6.72;89.41;102154.44;5030901;28;20726;-64
2021/12/19 09:14:22;;;;;;;5.10;3.77;;;6.60;99.90;;;6.70;88.48;102151.06;5030121;28;21468;-64
2021/12/19 09:16:49;;;;;;;10.87;5.40;;;6.50;99.90;;;6.69;88.24;102149.34;5031182;28;20721;-64
2021/12/19 09:19:17;;;;;;;7.40;4.23;;;6.60;99.90;;;6.64;88.55;102146.06;5031064;28;20659;-65
2021/12/19 09:21:44;;;;;;;4.90;4.30;;;6.50;99.90;;;6.66;89.35;102145.13;5030818;28;20664;-65
2021/12/19 09:24:11;;;;;;;4.30;3.50;;;6.50;99.90;;;6.62;89.70;102145.25;5027209;28;21214;-65
2021/12/19 09:26:38;;;;;;;5.00;3.70;;;6.50;99.90;;;6.57;90.39;102136.75;5022666;28;20640;-66
2021/12/19 09:29:05;;;;;;;6.17;3.60;;;6.40;99.90;;;6.57;90.92;102142.81;5029888;28;20644;-66
2021/12/19 09:31:32;;;;;;;6.40;4.00;;;6.40;99.90;;;6.59;89.98;102138.44;5009105;28;20688;-67
2021/12/19 09:33:59;;;;;;;6.30;3.90;;;6.50;99.90;;;6.66;90.76;102133.91;5013654;28;20644;-64
2021/12/19 09:36:27;;;;;;;6.83;3.07;;;6.50;99.90;;;6.55;90.62;102133.38;5011343;28;20698;-65
2021/12/19 09:38:54;;;;;;;6.40;3.90;;;6.40;99.90;;;6.54;91.75;102132.53;5029470;28;20616;-64
2021/12/19 09:41:29;;;;;;;3.97;3.27;;;6.40;99.90;;;6.58;91.28;102139.31;5028581;28;20743;-65
2021/12/19 09:44:03;;;;;;;9.50;4.53;;;6.40;99.90;;;6.63;90.60;102128.78;5028004;28;20735;-65
2021/12/19 09:46:36;;;;;;;4.97;3.50;;;6.50;99.90;;;6.65;90.33;102129.59;5008886;28;20625;-64
2021/12/19 09:49:10;;;;;;;5.17;3.40;;;6.50;99.90;;;6.54;91.39;102126.50;5013423;28;20719;-65
2021/12/19 09:51:37;;;;;;;6.40;3.73;;;6.50;99.90;;;6.56;91.95;102132.50;5031546;28;20750;-67
2021/12/19 09:54:07;;;;;;;6.30;3.80;;;6.40;99.90;;;6.62;90.86;102134.88;5030552;28;20617;-66
2021/12/19 09:56:34;;;;;;;9.10;4.67;;;6.50;99.90;;;6.60;90.90;102128.91;5012280;28;20636;-66
2021/12/19 09:59:08;;;;;;;7.57;4.43;;;6.50;99.90;;;6.63;91.59;102131.38;5009203;28;20633;-67
2021/12/19 10:01:35;;;;;;;7.87;4.50;;;6.50;99.90;;;6.71;91.29;102131.97;5027737;28;20652;-64
2021/12/19 10:04:03;;;;;;;4.57;3.63;;;6.60;99.90;;;6.68;91.98;102124.31;5028820;28;20968;-63
2021/12/19 10:06:31;;;;;;;8.00;3.53;;;6.60;99.90;;;6.70;91.12;102117.31;5011184;28;20625;-64
2021/12/19 10:09:20;;;;;;;5.37;4.33;;;6.60;99.90;;;6.69;91.64;102111.28;5030619;28;20616;-67
2021/12/19 10:14:33;;;;;;;3.70;2.70;;;6.60;99.90;;;6.70;91.02;102100.03;5020872;28;20634;-66
2021/12/19 10:17:05;;;;;;;13.57;6.83;;;6.60;99.90;;;6.66;91.82;102098.44;5030656;28;20608;-67
2021/12/19 10:19:51;;;;;;;7.63;4.40;;;6.50;99.90;;;6.72;90.76;102089.59;5010284;28;20969;-66
2021/12/19 10:22:32;;;;;;;4.27;3.80;;;6.60;99.90;;;6.76;90.86;102092.03;5012483;28;21081;-66
2021/12/19 10:25:19;;;;;;;7.87;4.17;;;6.70;99.90;;;6.80;90.46;102090.19;5006883;28;21289;-64
2021/12/19 10:27:53;;;;;;;8.97;5.60;;;6.70;99.90;;;6.84;90.39;102081.38;5011664;28;20724;-64
2021/12/19 10:30:35;;;;;;;10.63;5.90;;;6.70;99.90;;;6.92;90.88;102084.59;5018416;28;20646;-66
2021/12/19 10:33:07;;;;;;;11.40;4.93;;;6.80;99.90;;;6.97;90.20;102080.09;5008637;28;20665;-66
2021/12/19 10:35:41;;;;;;;6.53;4.17;;;6.90;99.90;;;6.98;89.03;102077.44;5027664;28;20636;-65
2021/12/19 10:38:35;;;;;;;9.13;4.57;;;6.90;99.90;;;7.04;89.86;102066.84;5030560;28;21001;-67
2021/12/19 10:41:30;;;;;;;8.90;5.50;;;6.90;99.90;;;6.97;89.70;102057.56;5029545;28;20682;-66
2021/12/19 10:44:03;;;;;;;10.03;5.93;;;6.90;99.90;;;7.05;89.61;102050.38;5016812;28;20632;-67
2021/12/19 10:46:42;;;;;;;7.47;4.37;;;6.90;99.90;;;7.11;89.64;102038.94;5029274;28;20624;-67
2021/12/19 10:49:32;;;;;;;9.70;5.60;;;7.00;99.90;;;7.14;88.58;102037.97;5023999;28;21203;-68
2021/12/19 10:52:04;;;;;;;10.47;4.83;;;7.00;99.90;;;7.19;89.16;102038.66;5024767;28;21041;-65
2021/12/19 10:54:31;;;;;;;6.80;4.97;;;7.10;99.90;;;7.16;89.40;102039.59;5005812;28;21038;-65
2021/12/19 10:57:11;;;;;;;7.47;4.43;;;7.00;99.90;;;7.20;88.84;102041.19;5002187;28;20628;-65
2021/12/19 10:59:38;;;;;;;7.50;3.57;;;7.10;99.90;;;7.20;88.64;102036.00;5026013;28;20640;-65
2021/12/19 11:02:05;;;;;;;8.20;2.50;;;7.10;99.90;;;7.17;88.09;102030.06;5023484;28;20644;-65
2021/12/19 11:04:35;;;;;;;9.33;4.77;;;7.10;99.90;;;7.14;88.23;102030.16;5004304;28;20656;-65
2021/12/19 11:07:03;;;;;;;9.30;4.03;;;7.10;99.90;;;7.09;89.30;102007.00;5027717;28;20747;-65
2021/12/19 11:09:37;;;;;;;4.03;2.60;;;6.90;99.90;;;7.06;88.96;102007.09;5020483;28;20621;-65
2021/12/19 11:12:10;;;;;;;5.90;3.30;;;6.90;99.90;;;7.06;90.01;102007.09;5009810;28;21263;-65
2021/12/19 11:14:47;;;;;;;7.87;4.37;;;6.90;99.90;;;7.03;90.34;102004.59;5019152;28;21064;-65
2021/12/19 11:17:22;;;;;;;6.33;3.70;;;6.90;99.90;;;7.00;89.90;101999.53;5022939;28;20644;-65
2021/12/19 11:19:52;;;;;;;5.80;3.63;;;6.90;99.90;;;6.96;90.01;101992.75;5011649;28;20638;-65
2021/12/19 11:22:26;;;;;;;7.00;3.97;;;6.80;99.90;;;6.98;90.32;101988.38;5012503;28;20667;-65
2021/12/19 11:25:00;;;;;;;7.67;4.20;;;6.80;99.90;;;6.83;90.68;101983.72;5033245;28;20623;-66
2021/12/19 11:27:29;;;;;;;7.07;3.90;;;6.70;99.90;;;6.87;90.90;101974.91;5034800;28;20620;-67
2021/12/19 11:29:57;;;;;;;8.40;3.70;;;6.70;99.90;;;6.80;91.78;101971.69;5017064;28;21183;-65
2021/12/19 11:32:39;;;;;;;8.47;4.90;;;6.70;99.90;;;6.89;91.11;101961.00;5017066;28;20747;-65
2021/12/19 11:35:19;;;;;;;3.87;1.57;;;6.70;99.90;;;6.91;90.77;101960.94;5034365;28;20608;-66
2021/12/19 11:37:56;;;;;;;5.90;3.90;;;6.80;99.90;;;6.94;90.32;101959.06;5017250;28;20716;-64
2021/12/19 11:40:26;;;;;;;2.73;2.53;;;6.80;99.90;;;6.90;90.00;101951.44;5017159;28;20699;-65
2021/12/19 11:43:06;;;;;;;5.93;3.27;;;6.80;99.90;;;6.93;89.98;101943.56;5034285;28;20997;-66
2021/12/19 11:45:57;;;;;;;5.13;3.23;;;6.80;99.90;;;6.96;89.45;101943.47;5016588;28;21194;-65